WADDKPSP

Guest
Details From WADD - Denpasar Ngurah Rai Intl
To KPSP - Palm Springs Intl
Flight Number -
Tags Generated
Created
Modified
Stats Distance 7,593 nm / 14,063 km
Max Altitude 0 ft / 0 m
Waypoints 4
Social Downloads 1
Likes 0
Share VATSIM

Download

Looking for another format? Having issues loading an existing format? Contact us
Advertisement - Login to hide

Notes

Generated

Route

WADD FEMEK BANDS KPSP

ID Type Via Altitude Latitude Longitude Leg Dist Tot Dist Heading (true) Name
O WADD APT - 0 ft / 0 m -8.74871˚ 115.15363˚ - 0 nm - -
FEMEK FIX - 0 ft / 0 m 34.63403˚ -120.36722˚ 7396 nm 7396 nm 54° / 103° -
BANDS FIX - 0 ft / 0 m 33.88961˚ -116.84948˚ 180 nm 7576 nm 103° / 105° -
O KPSP APT - 0 ft / 0 m 33.83517˚ -116.50967˚ 17 nm 7593 nm 101° / 101° -

Altitude Profile

Advertisement - Login to hide

Weather


0- 5 10 15 20 25 30 35+ Temperature / ° C

Clouds and Precipitation
Forecast for 2018-05-26 06:00 UTC. Updated an hour ago

Ground ~20,000 ft ~40,000 ft Winds

WADD

Details ICAO WADD (DPS)
Name Denpasar Ngurah Rai Intl
Region Indonesia
Timezone Asia/Makassar (UTC+8.0)
Stats Elevation 14 ft / 4 m (AMSL)
Location -8.748169° 115.167174°
Runways 1
Magnetic Variation 1.024° E

METAR

Not found

TAF

TAF WADD 260500Z 2606/2706 11012KT 9999 SCT017

Decode

Departure Runways

ID Width Length Bearing (true) Bearing (mag) Surface Threshold Offset Overrun Length
09 148 ft / 45 m 9,779 ft / 2,981 m 87.71° 86.69° Asphalt 121 ft / 37 m 75 ft / 23 m
27 148 ft / 45 m 9,779 ft / 2,981 m 267.70° 266.68° Asphalt 0 ft / 0 m 197 ft / 60 m

KPSP

Details ICAO KPSP (PSP)
Name Palm Springs Intl
Region United States
Timezone America/Los_Angeles (UTC-7.0)
Stats Elevation 477 ft / 145 m (AMSL)
Location 33.829677° -116.506218°
Runways 2
Magnetic Variation 11.540° E

METAR

KPSP 260553Z AUTO 33011KT 10SM CLR 22/07 A2989 RMK AO2 PK WND 32028/0519 SLP118 T02220067 10322 20222 53014

Decode

TAF

TAF KPSP 260520Z 2606/2706 32015G25KT P6SM SKC FM260800 32010KT P6SM SKC FM261200 29006KT P6SM SKC FM261700 32015G25KT P6SM SKC FM262300 32020G30KT P6SM SKC FM270300 32015G25KT P6SM SKC

Decode

Destination Runways

ID Width Length Bearing (true) Bearing (mag) Surface Threshold Offset Overrun Length
13L 75 ft / 23 m 4,958 ft / 1,511 m 143.52° 131.98° Asphalt 0 ft / 0 m 151 ft / 46 m
13R 151 ft / 46 m 10,012 ft / 3,052 m 143.52° 131.98° Asphalt 2,999 ft / 914 m 200 ft / 61 m
31L 151 ft / 46 m 10,012 ft / 3,052 m 323.53° 311.99° Asphalt 1,499 ft / 457 m 200 ft / 61 m
31R 75 ft / 23 m 4,958 ft / 1,511 m 323.53° 311.99° Asphalt 0 ft / 0 m 151 ft / 46 m